createdAt,value
2018-10-03T00:00:01.728Z,66.77
2018-10-03T00:02:30.172Z,69.14
2018-10-03T00:04:58.617Z,68.11
2018-10-03T00:07:27.012Z,67.92
2018-10-03T00:09:55.523Z,66.05
2018-10-03T00:12:24.054Z,68.70
2018-10-03T00:14:52.401Z,68.44
2018-10-03T00:17:20.832Z,68.51
2018-10-03T00:19:49.267Z,69.80
2018-10-03T00:22:17.719Z,65.74
2018-10-03T00:24:46.124Z,67.38
2018-10-03T00:27:14.560Z,69.58
2018-10-03T00:29:43.003Z,66.13
2018-10-03T00:32:11.508Z,68.76
2018-10-03T00:34:40.055Z,65.69
2018-10-03T00:37:08.611Z,66.38
2018-10-03T00:39:37.233Z,67.73
2018-10-03T00:42:06.369Z,69.21
2018-10-03T00:44:36.832Z,68.39
2018-10-03T00:47:05.252Z,67.28
2018-10-03T00:49:34.243Z,69.04
2018-10-03T00:52:02.668Z,68.16
2018-10-03T00:54:31.105Z,67.12
2018-10-03T00:56:59.552Z,66.62
2018-10-03T00:59:28.047Z,66.37
2018-10-03T01:01:56.475Z,65.90
2018-10-03T01:04:24.859Z,66.23
2018-10-03T01:06:53.245Z,64.20
2018-10-03T01:09:21.749Z,66.88
2018-10-03T01:11:50.183Z,64.61
2018-10-03T01:14:18.630Z,66.12
2018-10-03T01:16:47.042Z,67.53
2018-10-03T01:19:15.545Z,67.77
2018-10-03T01:21:44.042Z,68.80
2018-10-03T01:24:12.437Z,66.67
2018-10-03T01:26:40.823Z,64.29
2018-10-03T01:29:09.192Z,66.87
2018-10-03T01:31:37.620Z,66.15
2018-10-03T01:34:05.992Z,66.42
2018-10-03T01:36:34.385Z,67.47
2018-10-03T01:39:02.768Z,65.39
2018-10-03T01:41:31.113Z,64.02
2018-10-03T01:43:59.545Z,64.48
2018-10-03T01:46:27.969Z,63.88
2018-10-03T01:48:56.359Z,63.19
2018-10-03T01:51:24.739Z,64.74
2018-10-03T01:53:53.093Z,65.15
2018-10-03T01:56:21.451Z,64.36
2018-10-03T01:58:49.811Z,66.62
2018-10-03T02:01:18.219Z,65.18
2018-10-03T02:03:46.582Z,62.49
2018-10-03T02:06:15.005Z,63.98
2018-10-03T02:08:43.431Z,62.77
2018-10-03T02:11:11.903Z,65.36
2018-10-03T02:13:40.299Z,67.22
2018-10-03T02:16:08.779Z,65.13
2018-10-03T02:18:37.213Z,62.59
2018-10-03T02:21:05.664Z,61.71
2018-10-03T02:23:34.091Z,63.83
2018-10-03T02:26:02.502Z,62.98
2018-10-03T02:28:31.980Z,65.00
2018-10-03T02:31:00.377Z,66.12
2018-10-03T02:33:28.828Z,64.75
2018-10-03T02:35:57.267Z,65.87
2018-10-03T02:38:25.680Z,65.68
2018-10-03T02:40:54.060Z,63.45
2018-10-03T02:43:22.497Z,65.30
2018-10-03T02:45:50.920Z,65.38
2018-10-03T02:48:19.328Z,65.36
2018-10-03T02:50:47.745Z,66.39
2018-10-03T02:53:16.175Z,64.02
2018-10-03T02:55:44.575Z,67.24
2018-10-03T02:58:12.985Z,64.61
2018-10-03T03:00:41.453Z,65.64
2018-10-03T03:03:09.962Z,64.86
2018-10-03T03:05:38.512Z,64.91
2018-10-03T03:08:06.940Z,64.90
2018-10-03T03:10:35.459Z,65.22
2018-10-03T03:13:03.907Z,68.27
2018-10-03T03:15:32.324Z,65.71
2018-10-03T03:18:00.774Z,66.98
2018-10-03T03:20:29.179Z,66.28
2018-10-03T03:22:57.603Z,66.89
2018-10-03T03:25:26.110Z,66.38
2018-10-03T03:27:55.493Z,64.20
2018-10-03T03:30:23.936Z,62.28
2018-10-03T03:32:52.353Z,66.79
2018-10-03T03:35:20.819Z,66.34
2018-10-03T03:37:49.232Z,64.00
2018-10-03T03:40:17.692Z,66.11
2018-10-03T03:42:46.104Z,65.49
2018-10-03T03:45:14.495Z,65.51
2018-10-03T03:47:42.914Z,63.63
2018-10-03T03:50:11.324Z,66.03
2018-10-03T03:52:39.739Z,65.37
2018-10-03T03:55:08.168Z,64.12
2018-10-03T03:57:36.660Z,66.31
2018-10-03T04:00:05.120Z,64.07
2018-10-03T04:02:33.554Z,65.43
2018-10-03T04:05:01.965Z,64.39
2018-10-03T04:07:30.353Z,65.22
2018-10-03T04:09:58.776Z,65.92
2018-10-03T04:12:27.247Z,64.60
2018-10-03T04:14:55.659Z,64.11
2018-10-03T04:17:24.145Z,64.80
2018-10-03T04:19:52.520Z,63.63
2018-10-03T04:22:20.935Z,63.60
2018-10-03T04:24:49.283Z,64.51
2018-10-03T04:27:17.647Z,64.13
2018-10-03T04:29:46.013Z,63.74
2018-10-03T04:32:14.373Z,64.93
2018-10-03T04:34:42.755Z,65.22
2018-10-03T04:37:11.111Z,67.78
2018-10-03T04:39:39.520Z,65.73
2018-10-03T04:42:07.948Z,65.76
2018-10-03T04:44:36.402Z,65.96
2018-10-03T04:47:04.767Z,63.03
2018-10-03T04:49:33.398Z,65.77
2018-10-03T04:52:01.861Z,65.79
2018-10-03T04:54:30.286Z,65.15
2018-10-03T04:56:58.724Z,65.20
2018-10-03T04:59:27.075Z,66.75
2018-10-03T05:01:55.484Z,64.87
2018-10-03T05:04:23.900Z,68.10
2018-10-03T05:06:52.383Z,66.15
2018-10-03T05:09:24.656Z,64.92
2018-10-03T05:11:53.035Z,66.63
2018-10-03T05:14:21.865Z,65.80
2018-10-03T05:16:50.264Z,65.18
2018-10-03T05:19:18.673Z,65.71
2018-10-03T05:21:47.273Z,65.70
2018-10-03T05:24:15.838Z,67.17
2018-10-03T05:26:44.361Z,65.76
2018-10-03T05:29:12.780Z,64.99
2018-10-03T05:31:41.225Z,62.32
2018-10-03T05:34:09.599Z,62.05
2018-10-03T05:36:38.005Z,66.28
2018-10-03T05:39:08.827Z,63.41
2018-10-03T05:41:37.392Z,63.71
2018-10-03T05:44:05.952Z,61.79
2018-10-03T05:46:34.429Z,65.64
2018-10-03T05:49:02.905Z,65.21
2018-10-03T05:51:32.375Z,64.65
2018-10-03T05:54:00.864Z,65.28
2018-10-03T05:56:29.342Z,64.93
2018-10-03T05:58:57.818Z,64.82
2018-10-03T06:01:26.275Z,63.18
2018-10-03T06:03:54.715Z,63.59
2018-10-03T06:06:23.177Z,65.18
2018-10-03T06:08:51.688Z,63.89
2018-10-03T06:11:20.214Z,63.71
2018-10-03T06:13:48.721Z,64.11
2018-10-03T06:16:17.163Z,64.59
2018-10-03T06:18:45.731Z,63.22
2018-10-03T06:21:14.041Z,62.84
2018-10-03T06:23:42.508Z,64.19
2018-10-03T06:26:11.939Z,64.50
2018-10-03T06:28:40.372Z,64.42
2018-10-03T06:31:09.643Z,65.20
2018-10-03T06:33:39.006Z,61.58
2018-10-03T06:36:09.105Z,65.44
2018-10-03T06:38:37.620Z,64.71
2018-10-03T06:41:06.133Z,62.94
2018-10-03T06:43:34.700Z,63.64
2018-10-03T06:46:03.238Z,62.70
2018-10-03T06:48:31.705Z,60.88
2018-10-03T06:51:00.242Z,61.44
2018-10-03T06:53:28.683Z,59.03
2018-10-03T06:55:57.179Z,60.78
2018-10-03T06:58:25.655Z,59.81
2018-10-03T07:00:54.092Z,58.83
2018-10-03T07:03:23.641Z,58.88
2018-10-03T07:05:52.137Z,60.31
2018-10-03T07:08:21.527Z,60.32
2018-10-03T07:10:50.044Z,61.83
2018-10-03T07:13:18.498Z,61.66
2018-10-03T07:15:47.899Z,62.30
2018-10-03T07:18:16.445Z,61.46
2018-10-03T07:20:45.793Z,63.77
2018-10-03T07:23:14.592Z,61.16
2018-10-03T07:25:43.032Z,61.75
2018-10-03T07:28:11.370Z,62.13
2018-10-03T07:30:39.876Z,60.64
2018-10-03T07:33:08.371Z,61.26
2018-10-03T07:35:36.753Z,60.29
2018-10-03T07:38:05.136Z,59.41
2018-10-03T07:40:33.555Z,60.89
2018-10-03T07:43:01.882Z,60.08
2018-10-03T07:45:30.280Z,61.48
2018-10-03T07:47:58.676Z,62.04
2018-10-03T07:50:27.187Z,61.90
2018-10-03T07:52:55.607Z,62.39
2018-10-03T07:55:25.059Z,60.08
2018-10-03T07:57:53.725Z,58.58
2018-10-03T08:00:28.326Z,59.22
2018-10-03T08:02:57.056Z,58.43
2018-10-03T08:05:25.799Z,58.37
2018-10-03T08:07:55.379Z,57.70
2018-10-03T08:10:23.883Z,57.87
2018-10-03T08:12:53.324Z,56.40
2018-10-03T08:15:21.653Z,56.11
2018-10-03T08:17:50.073Z,57.31
2018-10-03T08:20:18.500Z,58.80
2018-10-03T08:22:47.872Z,56.29
2018-10-03T08:25:16.304Z,54.91
2018-10-03T08:27:44.740Z,55.84
2018-10-03T08:30:13.151Z,60.05
2018-10-03T08:32:41.589Z,57.30
2018-10-03T08:35:09.988Z,58.11
2018-10-03T08:37:38.454Z,55.97
2018-10-03T08:40:07.055Z,57.23
2018-10-03T08:42:35.476Z,57.43
2018-10-03T08:45:06.147Z,56.85
2018-10-03T08:47:34.544Z,56.80
2018-10-03T08:50:02.998Z,58.63
2018-10-03T08:52:31.440Z,57.88
2018-10-03T08:55:00.142Z,56.96
2018-10-03T08:57:28.595Z,55.54
2018-10-03T08:59:56.997Z,54.36
2018-10-03T09:02:25.423Z,54.64
2018-10-03T09:04:53.981Z,56.84
2018-10-03T09:07:22.394Z,59.26
2018-10-03T09:09:51.105Z,58.76
2018-10-03T09:12:19.584Z,57.88
2018-10-03T09:14:48.128Z,58.93
2018-10-03T09:17:16.636Z,57.80
2018-10-03T09:19:45.123Z,56.14
2018-10-03T09:22:14.666Z,57.45
2018-10-03T09:24:43.183Z,54.60
2018-10-03T09:27:11.733Z,52.34
2018-10-03T09:29:40.273Z,48.92
2018-10-03T09:32:08.712Z,49.77
2018-10-03T09:34:37.217Z,51.10
2018-10-03T09:37:05.663Z,50.23
2018-10-03T09:39:34.209Z,47.88
2018-10-03T09:42:02.764Z,47.19
2018-10-03T09:44:32.232Z,46.52
2018-10-03T09:47:00.614Z,47.74
2018-10-03T09:49:29.011Z,48.52
2018-10-03T09:51:57.421Z,48.40
2018-10-03T09:54:25.855Z,50.19
2018-10-03T09:56:54.684Z,50.73
2018-10-03T09:59:23.131Z,50.92
2018-10-03T10:01:55.295Z,51.02
2018-10-03T10:04:23.830Z,50.25
2018-10-03T10:06:52.225Z,50.24
2018-10-03T10:09:20.804Z,50.79
2018-10-03T10:11:49.215Z,50.34
2018-10-03T10:14:17.620Z,50.26
2018-10-03T10:16:46.028Z,50.63
2018-10-03T10:19:14.540Z,52.16
2018-10-03T10:21:42.974Z,52.10
2018-10-03T10:24:11.480Z,52.32
2018-10-03T10:26:39.935Z,51.20
2018-10-03T10:29:08.388Z,52.15
2018-10-03T10:31:37.899Z,50.55
2018-10-03T10:34:06.292Z,48.08
2018-10-03T10:36:34.732Z,47.71
2018-10-03T10:39:03.252Z,47.95
2018-10-03T10:41:31.917Z,46.14
2018-10-03T10:44:00.238Z,46.48
2018-10-03T10:46:28.730Z,47.85
2018-10-03T10:48:57.238Z,47.34
2018-10-03T10:51:25.721Z,46.95
2018-10-03T10:53:54.271Z,46.23
2018-10-03T10:56:22.672Z,44.61
2018-10-03T10:58:51.072Z,46.36
2018-10-03T11:01:19.504Z,46.15
2018-10-03T11:03:47.908Z,48.25
2018-10-03T11:06:16.376Z,46.64
2018-10-03T11:08:44.776Z,47.55
2018-10-03T11:11:13.205Z,46.77
2018-10-03T11:13:41.760Z,45.62
2018-10-03T11:16:10.171Z,46.37
2018-10-03T11:18:38.563Z,46.68
2018-10-03T11:21:07.067Z,46.97
2018-10-03T11:23:35.575Z,47.51
2018-10-03T11:26:04.896Z,45.57
2018-10-03T11:28:33.376Z,42.49
2018-10-03T11:31:01.809Z,41.82
2018-10-03T11:33:32.275Z,45.87
2018-10-03T11:36:00.704Z,44.81
2018-10-03T11:38:29.191Z,41.47
2018-10-03T11:40:57.724Z,42.24
2018-10-03T11:43:26.201Z,40.68
2018-10-03T11:45:54.693Z,38.86
2018-10-03T11:48:24.127Z,38.86
2018-10-03T11:50:52.616Z,41.40
2018-10-03T11:53:21.133Z,43.12
2018-10-03T11:55:49.696Z,39.99
2018-10-03T11:58:18.276Z,40.50
2018-10-03T12:00:47.868Z,42.37
2018-10-03T12:03:16.578Z,43.35
2018-10-03T12:05:44.951Z,44.15
2018-10-03T12:08:13.394Z,44.14
2018-10-03T12:10:41.873Z,44.40
2018-10-03T12:13:10.376Z,43.09
2018-10-03T12:15:40.825Z,43.05
2018-10-03T12:18:09.321Z,42.82
2018-10-03T12:20:37.815Z,42.06
2018-10-03T12:23:06.282Z,41.29
2018-10-03T12:25:34.796Z,39.93
2018-10-03T12:28:03.336Z,41.20
2018-10-03T12:30:31.728Z,41.80
2018-10-03T12:33:00.170Z,43.57
2018-10-03T12:35:34.024Z,43.57
2018-10-03T12:38:02.854Z,42.85
2018-10-03T12:40:31.843Z,41.98
2018-10-03T12:43:00.353Z,42.71
2018-10-03T12:45:30.088Z,42.06
2018-10-03T12:47:58.779Z,43.84
2018-10-03T12:50:27.762Z,44.88
2018-10-03T12:52:56.123Z,46.51
2018-10-03T12:55:24.595Z,47.15
2018-10-03T12:57:52.972Z,45.74
2018-10-03T13:00:21.483Z,45.65
2018-10-03T13:02:49.855Z,45.79
2018-10-03T13:05:18.232Z,45.88
2018-10-03T13:07:46.619Z,46.23
2018-10-03T13:10:14.998Z,46.33
2018-10-03T13:12:43.363Z,46.30
2018-10-03T13:15:11.788Z,44.89
2018-10-03T13:17:40.278Z,43.18
2018-10-03T13:20:08.952Z,43.64
2018-10-03T13:22:37.418Z,43.26
2018-10-03T13:25:05.908Z,42.12
2018-10-03T13:27:34.325Z,41.16
2018-10-03T13:30:02.737Z,39.74
2018-10-03T13:32:31.252Z,42.32
2018-10-03T13:34:59.687Z,42.60
2018-10-03T13:37:29.129Z,44.06
2018-10-03T13:39:57.582Z,44.73
2018-10-03T13:42:26.054Z,46.66
2018-10-03T13:44:54.447Z,46.91
2018-10-03T13:47:22.895Z,45.50
2018-10-03T13:49:51.343Z,45.27
2018-10-03T13:52:19.876Z,45.81
2018-10-03T13:54:48.353Z,45.67
2018-10-03T13:57:17.852Z,45.29
2018-10-03T13:59:46.305Z,46.43
2018-10-03T14:02:14.877Z,45.84
2018-10-03T14:04:43.400Z,44.94
2018-10-03T14:07:11.848Z,43.98
2018-10-03T14:09:40.272Z,44.39
2018-10-03T14:12:08.660Z,44.47
2018-10-03T14:14:37.078Z,45.04
2018-10-03T14:17:05.489Z,43.81
2018-10-03T14:19:33.828Z,46.22
2018-10-03T14:22:03.340Z,44.89
2018-10-03T14:24:31.863Z,44.62
2018-10-03T14:27:00.249Z,45.87
2018-10-03T14:29:28.684Z,45.98
2018-10-03T14:31:57.099Z,43.32
2018-10-03T14:34:25.567Z,44.39
2018-10-03T14:36:53.971Z,46.23
2018-10-03T14:39:22.497Z,45.62
2018-10-03T14:41:54.905Z,47.19
2018-10-03T14:44:23.346Z,45.22
2018-10-03T14:46:51.772Z,44.76
2018-10-03T14:49:20.237Z,44.33
2018-10-03T14:51:49.792Z,42.72
2018-10-03T14:54:18.248Z,43.36
2018-10-03T14:56:48.735Z,43.07
2018-10-03T14:59:18.042Z,45.08
2018-10-03T15:01:46.841Z,43.19
2018-10-03T15:04:16.316Z,42.63
2018-10-03T15:06:44.872Z,43.62
2018-10-03T15:09:19.875Z,45.00
2018-10-03T15:11:48.208Z,43.54
2018-10-03T15:14:16.595Z,46.51
2018-10-03T15:16:45.043Z,45.48
2018-10-03T15:19:13.463Z,45.84
2018-10-03T15:21:41.768Z,43.72
2018-10-03T15:24:10.285Z,43.76
2018-10-03T15:26:38.803Z,44.21
2018-10-03T15:29:07.296Z,45.36
2018-10-03T15:31:36.862Z,44.56
2018-10-03T15:34:05.502Z,44.55
2018-10-03T15:36:34.149Z,44.38
2018-10-03T15:39:02.621Z,44.40
2018-10-03T15:41:31.176Z,44.31
2018-10-03T15:43:59.628Z,45.20
2018-10-03T15:46:28.136Z,44.73
2018-10-03T15:48:56.599Z,45.31
2018-10-03T15:51:25.256Z,44.74
2018-10-03T15:53:53.758Z,44.49
2018-10-03T15:56:22.362Z,46.39
2018-10-03T15:58:50.948Z,45.07
2018-10-03T16:01:20.385Z,45.56
2018-10-03T16:03:48.864Z,46.30
2018-10-03T16:06:17.412Z,45.68
2018-10-03T16:08:45.819Z,46.55
2018-10-03T16:11:14.260Z,47.27
2018-10-03T16:13:42.655Z,46.02
2018-10-03T16:16:11.220Z,46.52
2018-10-03T16:18:39.784Z,46.04
2018-10-03T16:21:08.420Z,46.50
2018-10-03T16:23:36.923Z,47.38
2018-10-03T16:26:05.493Z,47.00
2018-10-03T16:28:34.092Z,47.09
2018-10-03T16:31:02.656Z,49.13
2018-10-03T16:33:31.296Z,50.13
2018-10-03T16:35:59.925Z,48.71
2018-10-03T16:38:28.684Z,49.79
2018-10-03T16:40:57.208Z,50.16
2018-10-03T16:43:25.799Z,49.50
2018-10-03T16:45:54.472Z,49.69
2018-10-03T16:48:23.000Z,49.40
2018-10-03T16:50:51.484Z,49.70
2018-10-03T16:53:19.926Z,49.29
2018-10-03T16:55:48.394Z,50.33
2018-10-03T16:58:17.041Z,49.65
2018-10-03T17:00:45.529Z,51.26
2018-10-03T17:03:14.090Z,50.98
2018-10-03T17:05:42.638Z,50.84
2018-10-03T17:08:11.118Z,51.82
2018-10-03T17:10:39.593Z,51.74
2018-10-03T17:13:08.388Z,51.63
2018-10-03T17:15:36.892Z,51.76
2018-10-03T17:18:05.540Z,52.78
2018-10-03T17:20:34.081Z,51.36
2018-10-03T17:23:03.150Z,51.77
2018-10-03T17:25:31.916Z,51.48
2018-10-03T17:28:00.317Z,51.95
2018-10-03T17:30:28.783Z,51.88
2018-10-03T17:32:57.329Z,51.65
2018-10-03T17:35:25.861Z,52.10
2018-10-03T17:37:54.374Z,53.18
2018-10-03T17:40:22.861Z,52.53
2018-10-03T17:42:51.319Z,54.33
2018-10-03T17:45:19.923Z,54.09
2018-10-03T17:50:19.904Z,52.77
2018-10-03T17:52:48.456Z,53.08
2018-10-03T17:55:17.007Z,52.54
2018-10-03T17:57:45.464Z,53.50
2018-10-03T18:00:14.048Z,53.25
2018-10-03T18:02:42.464Z,53.30
2018-10-03T18:05:10.953Z,52.65
2018-10-03T18:07:39.484Z,52.32
2018-10-03T18:10:07.969Z,53.00
2018-10-03T18:12:36.524Z,52.70
2018-10-03T18:15:05.245Z,52.80
2018-10-03T18:17:33.822Z,53.45
2018-10-03T18:20:02.368Z,53.62
2018-10-03T18:22:30.864Z,52.86
2018-10-03T18:24:59.361Z,53.77
2018-10-03T18:27:27.784Z,54.26
2018-10-03T18:29:57.310Z,53.52
2018-10-03T18:32:26.636Z,54.11
2018-10-03T18:34:55.963Z,53.52
2018-10-03T18:37:25.482Z,53.28
2018-10-03T18:39:54.835Z,52.42
2018-10-03T18:42:24.068Z,52.26
2018-10-03T18:44:53.267Z,53.84
2018-10-03T18:47:22.121Z,53.30
2018-10-03T18:49:52.074Z,54.39
2018-10-03T18:52:21.507Z,55.00
2018-10-03T18:54:51.072Z,55.60
2018-10-03T18:57:20.769Z,54.71
2018-10-03T18:59:51.443Z,55.78
2018-10-03T19:02:21.515Z,54.82
2018-10-03T19:04:52.537Z,55.17
2018-10-03T19:07:21.985Z,54.19
2018-10-03T19:09:53.372Z,54.22
2018-10-03T19:12:24.572Z,54.00
2018-10-03T19:14:54.983Z,54.38
2018-10-03T19:17:23.447Z,53.79
2018-10-03T19:19:51.964Z,54.09
2018-10-03T19:22:20.449Z,54.31
2018-10-03T19:24:48.977Z,55.61
2018-10-03T19:27:17.442Z,54.48
2018-10-03T19:29:45.893Z,54.64
2018-10-03T19:32:14.338Z,53.38
2018-10-03T19:34:42.840Z,54.63
2018-10-03T19:37:11.296Z,54.50
2018-10-03T19:39:39.756Z,55.17
2018-10-03T19:42:08.245Z,55.04
2018-10-03T19:44:37.358Z,55.04
2018-10-03T19:47:06.390Z,54.94
2018-10-03T19:49:35.297Z,54.62
2018-10-03T19:52:04.586Z,54.93
2018-10-03T19:54:33.795Z,54.66
2018-10-03T19:57:02.847Z,54.53
2018-10-03T19:59:31.998Z,57.09
2018-10-03T20:02:01.029Z,55.87
2018-10-03T20:04:30.337Z,54.94
2018-10-03T20:06:59.808Z,56.00
2018-10-03T20:09:28.965Z,55.28
2018-10-03T20:11:58.298Z,56.97
2018-10-03T20:14:28.078Z,56.59
2018-10-03T20:16:57.461Z,55.57
2018-10-03T20:19:26.676Z,56.31
2018-10-03T20:21:55.542Z,55.57
2018-10-03T20:24:25.725Z,55.94
2018-10-03T20:26:54.818Z,55.75
2018-10-03T20:29:24.248Z,54.74
2018-10-03T20:31:53.498Z,54.68
2018-10-03T20:34:22.681Z,55.29
2018-10-03T20:36:51.369Z,56.26
2018-10-03T20:39:19.880Z,57.07
2018-10-03T20:41:48.600Z,56.62
2018-10-03T20:44:17.145Z,56.06
2018-10-03T20:46:45.648Z,55.94
2018-10-03T20:49:14.248Z,55.60
2018-10-03T20:51:42.777Z,56.36
2018-10-03T20:54:11.306Z,56.27
2018-10-03T20:56:39.745Z,56.38
2018-10-03T20:59:08.208Z,56.39
2018-10-03T21:01:36.812Z,56.40
2018-10-03T21:04:05.291Z,56.56
2018-10-03T21:06:34.026Z,56.71
2018-10-03T21:09:02.742Z,57.82
2018-10-03T21:11:31.717Z,57.42
2018-10-03T21:14:00.190Z,57.21
2018-10-03T21:16:28.736Z,58.64
2018-10-03T21:18:57.269Z,58.08
2018-10-03T21:21:25.775Z,58.88
2018-10-03T21:23:54.304Z,58.71
2018-10-03T21:26:22.844Z,57.88
2018-10-03T21:28:51.401Z,58.31
2018-10-03T21:31:19.857Z,57.52
2018-10-03T21:33:48.448Z,57.56
2018-10-03T21:36:16.934Z,57.11
2018-10-03T21:38:45.416Z,57.30
2018-10-03T21:41:13.896Z,57.66
2018-10-03T21:43:42.464Z,56.51
2018-10-03T21:46:10.895Z,57.77
2018-10-03T21:48:42.214Z,57.87
2018-10-03T21:51:10.720Z,58.21
2018-10-03T21:53:40.525Z,58.67
2018-10-03T21:56:08.904Z,58.14
2018-10-03T21:58:37.564Z,57.59
2018-10-03T22:01:06.029Z,57.80
2018-10-03T22:03:34.453Z,57.21
2018-10-03T22:06:02.904Z,59.06
2018-10-03T22:08:31.385Z,57.22
2018-10-03T22:10:59.836Z,57.60
2018-10-03T22:13:28.245Z,58.96
2018-10-03T22:15:56.686Z,58.85
2018-10-03T22:18:25.160Z,57.45
2018-10-03T22:20:53.620Z,58.15
2018-10-03T22:23:22.152Z,60.09
2018-10-03T22:25:50.626Z,57.40
2018-10-03T22:28:19.056Z,57.33
2018-10-03T22:30:47.506Z,57.41
2018-10-03T22:33:15.912Z,58.44
2018-10-03T22:35:44.367Z,58.75
2018-10-03T22:38:12.805Z,58.06
2018-10-03T22:40:41.230Z,59.30
2018-10-03T22:43:09.708Z,58.46
2018-10-03T22:45:38.156Z,59.87
2018-10-03T22:48:06.668Z,60.95
2018-10-03T22:50:35.160Z,59.51
2018-10-03T22:53:03.656Z,59.90
2018-10-03T22:55:32.178Z,59.82
2018-10-03T22:58:00.603Z,59.01
2018-10-03T23:00:29.266Z,58.12
2018-10-03T23:02:57.781Z,58.37
2018-10-03T23:05:26.246Z,59.18
2018-10-03T23:07:54.665Z,60.36
2018-10-03T23:10:23.164Z,58.61
2018-10-03T23:12:51.616Z,59.83
2018-10-03T23:15:19.996Z,58.71
2018-10-03T23:17:48.469Z,59.00
2018-10-03T23:20:17.016Z,59.17
2018-10-03T23:22:45.497Z,58.90
2018-10-03T23:25:14.073Z,59.69
2018-10-03T23:27:42.533Z,59.27
2018-10-03T23:30:10.980Z,60.97
2018-10-03T23:32:39.420Z,60.23
2018-10-03T23:35:07.922Z,60.47
2018-10-03T23:37:36.424Z,59.45
2018-10-03T23:40:05.043Z,59.99
2018-10-03T23:42:33.586Z,60.76
2018-10-03T23:45:02.018Z,59.14
2018-10-03T23:47:30.464Z,59.93
2018-10-03T23:49:59.088Z,59.51
2018-10-03T23:52:27.562Z,58.66
2018-10-03T23:54:55.992Z,60.01
2018-10-03T23:57:24.546Z,60.95
2018-10-03T23:59:53.153Z,60.91
